Terminal Aerodrome Forecast
Issued by NWS

Home | Current Version | Previous Version | Text Only | Print | Product List | Glossary On
Versions: 1 2 3 4 5 6 7 8 9 10 11 12 13 14 15
000
FTUS45 KREV 210534
TAFTRK
TAF
KTRK 210534Z 2106/2206 19012KT 5SM -SHSN SCT020 BKN030
     FM210700 22010G18KT 1/2SM SN OVC008
     FM211000 18012G20KT 3SM -SHSN SCT015 OVC030
     FM220100 19012G22KT 1SM -SN BKN020 OVC030=

USA.gov is the U.S. government's official web portal to all federal, state and local government web resources and services.